createdAt,value
2023-03-14T00:05:09.406Z,99.90
2023-03-14T00:10:15.748Z,99.90
2023-03-14T00:15:21.771Z,99.90
2023-03-14T00:20:31.279Z,99.90
2023-03-14T00:25:37.592Z,99.90
2023-03-14T00:30:49.269Z,99.90
2023-03-14T00:35:56.184Z,99.90
2023-03-14T00:41:06.102Z,99.90
2023-03-14T00:46:22.390Z,99.90
2023-03-14T00:51:31.660Z,99.90
2023-03-14T00:56:42.326Z,99.90
2023-03-14T01:01:50.109Z,99.90
2023-03-14T01:06:58.299Z,99.90
2023-03-14T01:12:05.886Z,99.90
2023-03-14T01:17:11.073Z,99.90
2023-03-14T01:22:25.550Z,99.90
2023-03-14T01:27:42.939Z,99.90
2023-03-14T01:32:53.263Z,99.90
2023-03-14T01:38:02.591Z,99.90
2023-03-14T01:43:16.401Z,99.90
2023-03-14T01:48:57.973Z,99.90
2023-03-14T01:54:07.925Z,99.90
2023-03-14T01:59:18.968Z,99.90
2023-03-14T02:04:22.531Z,99.90
2023-03-14T02:09:31.967Z,99.90
2023-03-14T02:14:38.984Z,99.90
2023-03-14T02:20:09.637Z,99.90
2023-03-14T02:25:19.129Z,99.90
2023-03-14T02:30:29.562Z,99.90
2023-03-14T02:35:35.174Z,99.90
2023-03-14T02:40:44.169Z,99.90
2023-03-14T02:46:00.447Z,99.90
2023-03-14T02:56:30.334Z,99.90
2023-03-14T03:01:38.137Z,99.90
2023-03-14T03:06:48.087Z,99.90
2023-03-14T03:11:53.762Z,99.90
2023-03-14T03:17:16.562Z,99.90
2023-03-14T03:27:50.429Z,99.90
2023-03-14T03:33:11.024Z,99.90
2023-03-14T03:38:22.698Z,99.90
2023-03-14T03:43:29.892Z,99.90
2023-03-14T03:48:37.512Z,99.90
2023-03-14T03:53:53.219Z,99.90
2023-03-14T03:59:08.966Z,99.90
2023-03-14T04:04:18.755Z,99.90
2023-03-14T04:09:39.159Z,99.90
2023-03-14T04:15:12.893Z,99.90
2023-03-14T04:20:29.934Z,99.90
2023-03-14T04:25:49.089Z,99.90
2023-03-14T04:31:29.924Z,99.90
2023-03-14T04:36:40.446Z,99.90
2023-03-14T04:41:52.596Z,99.90
2023-03-14T04:46:58.770Z,99.90
2023-03-14T04:52:11.412Z,99.90
2023-03-14T04:57:19.744Z,99.90
2023-03-14T05:02:56.950Z,99.90
2023-03-14T05:08:26.603Z,99.90
2023-03-14T05:13:58.101Z,99.90
2023-03-14T05:19:17.943Z,99.90
2023-03-14T05:24:42.454Z,99.90
2023-03-14T05:30:07.629Z,99.90
2023-03-14T05:35:26.807Z,99.90
2023-03-14T05:40:47.036Z,99.90
2023-03-14T05:46:16.727Z,99.90
2023-03-14T05:51:37.401Z,99.90
2023-03-14T05:57:04.609Z,99.90
2023-03-14T06:02:17.490Z,99.90
2023-03-14T06:07:47.670Z,99.90
2023-03-14T06:13:04.253Z,99.90
2023-03-14T06:18:23.394Z,99.90
2023-03-14T06:23:28.565Z,99.90
2023-03-14T06:28:48.316Z,99.90
2023-03-14T06:33:56.315Z,99.90
2023-03-14T06:39:16.617Z,99.90
2023-03-14T06:44:31.939Z,99.90
2023-03-14T06:49:39.038Z,99.90
2023-03-14T06:54:46.557Z,99.90
2023-03-14T07:00:00.648Z,99.90
2023-03-14T07:05:23.825Z,99.90
2023-03-14T07:10:37.953Z,99.90
2023-03-14T07:15:52.320Z,99.90
2023-03-14T07:20:56.138Z,99.90
2023-03-14T07:26:03.424Z,99.90
2023-03-14T07:31:26.481Z,99.90
2023-03-14T07:36:32.033Z,99.90
2023-03-14T07:41:42.982Z,99.90
2023-03-14T07:47:15.234Z,99.90
2023-03-14T07:52:23.112Z,99.90
2023-03-14T07:57:31.791Z,99.90
2023-03-14T08:02:40.121Z,99.90
2023-03-14T08:07:47.722Z,99.90
2023-03-14T08:12:58.241Z,99.90
2023-03-14T08:18:04.421Z,99.90
2023-03-14T08:23:11.932Z,99.90
2023-03-14T08:28:17.883Z,99.90
2023-03-14T08:33:28.211Z,99.90
2023-03-14T08:38:40.339Z,99.90
2023-03-14T08:50:08.653Z,99.90
2023-03-14T08:55:19.752Z,99.90
2023-03-14T09:00:29.108Z,99.90
2023-03-14T09:05:36.284Z,99.90
2023-03-14T09:10:39.645Z,99.90
2023-03-14T09:15:43.924Z,99.90
2023-03-14T09:20:49.200Z,99.90
2023-03-14T09:25:56.943Z,99.90
2023-03-14T09:31:00.322Z,99.90
2023-03-14T09:36:05.143Z,99.90
2023-03-14T09:41:23.167Z,99.90
2023-03-14T09:46:26.497Z,99.90
2023-03-14T09:51:32.793Z,99.90
2023-03-14T09:56:36.392Z,99.90
2023-03-14T10:01:39.581Z,99.90
2023-03-14T10:06:44.101Z,99.90
2023-03-14T10:11:47.450Z,99.90
2023-03-14T10:16:51.019Z,99.90
2023-03-14T10:21:58.041Z,99.90
2023-03-14T10:27:03.426Z,99.90
2023-03-14T10:32:34.194Z,99.90
2023-03-14T10:37:39.203Z,99.90
2023-03-14T10:42:45.928Z,99.90
2023-03-14T10:53:13.303Z,99.90
2023-03-14T10:58:22.494Z,99.90
2023-03-14T11:03:26.363Z,99.90
2023-03-14T11:08:33.940Z,99.90
2023-03-14T11:13:39.337Z,99.90
2023-03-14T11:19:03.273Z,99.90
2023-03-14T11:24:21.612Z,99.90
2023-03-14T11:29:28.386Z,99.90
2023-03-14T11:34:34.620Z,99.90
2023-03-14T11:39:42.741Z,99.90
2023-03-14T11:44:49.243Z,99.90
2023-03-14T11:49:54.151Z,99.90
2023-03-14T11:55:00.263Z,99.90
2023-03-14T12:00:05.699Z,99.90
2023-03-14T12:05:45.624Z,99.90
2023-03-14T12:10:51.995Z,99.90
2023-03-14T12:15:57.051Z,99.90
2023-03-14T12:21:01.859Z,99.90
2023-03-14T12:26:18.206Z,99.90
2023-03-14T12:31:43.694Z,99.90
2023-03-14T12:37:00.316Z,99.90
2023-03-14T12:42:06.407Z,99.90
2023-03-14T12:47:43.280Z,99.90
2023-03-14T12:52:52.877Z,98.40
2023-03-14T12:57:58.137Z,98.10
2023-03-14T13:03:04.025Z,93.90
2023-03-14T13:08:08.725Z,95.70
2023-03-14T13:13:21.018Z,94.90
2023-03-14T13:18:29.523Z,95.10
2023-03-14T13:23:33.783Z,97.60
2023-03-14T13:28:39.279Z,95.10
2023-03-14T13:33:45.489Z,95.50
2023-03-14T13:38:48.851Z,96.10
2023-03-14T13:43:53.372Z,96.20
2023-03-14T13:48:59.555Z,99.50
2023-03-14T13:54:04.175Z,96.20
2023-03-14T13:59:26.909Z,93.90
2023-03-14T14:04:31.723Z,94.40
2023-03-14T14:09:38.956Z,93.40
2023-03-14T14:14:44.969Z,93.80
2023-03-14T14:19:48.132Z,90.10
2023-03-14T14:24:52.695Z,85.20
2023-03-14T14:30:01.995Z,87.90
2023-03-14T14:35:05.779Z,83.50
2023-03-14T14:40:11.675Z,83.70
2023-03-14T14:45:19.105Z,84.10
2023-03-14T14:50:29.962Z,79.90
2023-03-14T14:55:35.050Z,78.00
2023-03-14T15:00:47.549Z,78.20
2023-03-14T15:05:53.382Z,83.50
2023-03-14T15:10:57.015Z,81.10
2023-03-14T15:16:01.827Z,86.10
2023-03-14T15:21:05.313Z,84.20
2023-03-14T15:26:13.724Z,82.30
2023-03-14T15:31:20.645Z,87.00
2023-03-14T15:36:25.462Z,86.30
2023-03-14T15:41:29.578Z,84.20
2023-03-14T15:46:38.032Z,87.40
2023-03-14T15:51:41.196Z,89.90
2023-03-14T15:56:44.416Z,90.30
2023-03-14T16:01:49.735Z,91.00
2023-03-14T16:06:53.136Z,92.60
2023-03-14T16:11:56.275Z,93.80
2023-03-14T16:17:02.287Z,95.00
2023-03-14T16:22:06.084Z,95.80
2023-03-14T16:27:09.917Z,95.30
2023-03-14T16:32:16.256Z,95.50
2023-03-14T16:37:21.523Z,94.70
2023-03-14T16:42:27.724Z,96.00
2023-03-14T16:47:32.411Z,97.10
2023-03-14T16:52:35.582Z,97.10
2023-03-14T16:57:39.110Z,99.90
2023-03-14T17:02:44.144Z,99.90
2023-03-14T17:07:47.344Z,99.90
2023-03-14T17:12:50.651Z,99.90
2023-03-14T17:17:55.475Z,99.90
2023-03-14T17:22:59.229Z,99.90
2023-03-14T17:28:02.411Z,99.90
2023-03-14T17:33:07.806Z,99.90
2023-03-14T17:38:11.209Z,99.90
2023-03-14T17:43:19.126Z,99.90
2023-03-14T17:48:24.051Z,99.90
2023-03-14T17:53:27.384Z,99.90
2023-03-14T17:58:34.375Z,99.90
2023-03-14T18:03:39.601Z,99.90
2023-03-14T18:08:44.194Z,99.90
2023-03-14T18:13:47.599Z,99.90
2023-03-14T18:18:53.999Z,99.90
2023-03-14T18:23:57.454Z,99.90
2023-03-14T18:29:01.599Z,99.90
2023-03-14T18:34:06.655Z,99.90
2023-03-14T18:39:10.601Z,99.90
2023-03-14T18:44:13.904Z,99.90
2023-03-14T18:49:20.713Z,99.90
2023-03-14T18:54:24.394Z,99.90
2023-03-14T18:59:28.056Z,99.90
2023-03-14T19:04:33.082Z,99.90
2023-03-14T19:09:36.336Z,99.90
2023-03-14T19:14:40.344Z,99.90
2023-03-14T19:19:45.276Z,99.90
2023-03-14T19:24:48.493Z,99.90
2023-03-14T19:29:54.046Z,99.90
2023-03-14T19:34:59.611Z,99.90
2023-03-14T19:40:04.158Z,99.90
2023-03-14T19:45:11.220Z,99.90
2023-03-14T19:50:15.992Z,99.90
2023-03-14T19:55:19.454Z,99.90
2023-03-14T20:00:23.319Z,99.90
2023-03-14T20:05:28.248Z,99.90
2023-03-14T20:10:32.566Z,99.90
2023-03-14T20:15:36.483Z,99.90
2023-03-14T20:20:42.728Z,99.90
2023-03-14T20:25:46.979Z,99.90
2023-03-14T20:30:50.151Z,99.90
2023-03-14T20:35:58.294Z,99.90
2023-03-14T20:41:01.841Z,99.90
2023-03-14T20:46:05.558Z,99.90
2023-03-14T20:51:12.330Z,99.90
2023-03-14T20:56:16.364Z,99.90
2023-03-14T21:01:21.166Z,99.90
2023-03-14T21:06:26.300Z,99.90
2023-03-14T21:11:29.954Z,99.90
2023-03-14T21:16:33.949Z,99.90
2023-03-14T21:21:38.799Z,99.90
2023-03-14T21:26:42.909Z,99.90
2023-03-14T21:31:47.187Z,99.90
2023-03-14T21:36:52.191Z,99.90
2023-03-14T21:41:56.114Z,99.90
2023-03-14T21:47:01.849Z,99.90
2023-03-14T21:52:08.968Z,99.90
2023-03-14T21:57:14.706Z,99.90
2023-03-14T22:02:19.040Z,99.90
2023-03-14T22:07:51.092Z,99.90
2023-03-14T22:12:56.126Z,99.90
2023-03-14T22:17:59.467Z,99.90
2023-03-14T22:23:04.550Z,99.90
2023-03-14T22:28:08.662Z,99.90
2023-03-14T22:33:14.685Z,99.90
2023-03-14T22:38:19.917Z,99.90
2023-03-14T22:43:23.609Z,99.90
2023-03-14T22:48:27.012Z,99.90
2023-03-14T22:53:31.816Z,99.90
2023-03-14T22:58:35.630Z,99.90
2023-03-14T23:03:38.814Z,99.90
2023-03-14T23:08:43.637Z,99.90
2023-03-14T23:13:48.483Z,99.90
2023-03-14T23:18:51.970Z,99.90
2023-03-14T23:23:56.692Z,99.90
2023-03-14T23:29:00.972Z,99.90
2023-03-14T23:34:04.546Z,99.90
2023-03-14T23:39:09.593Z,99.90
2023-03-14T23:44:13.896Z,99.90
2023-03-14T23:49:17.308Z,99.90
2023-03-14T23:54:22.452Z,99.90
2023-03-14T23:59:26.342Z,99.90
